createdAt,value
2024-02-29T00:02:00.003Z,1.15
2024-02-29T00:04:26.632Z,0.70
2024-02-29T00:06:53.047Z,0.52
2024-02-29T00:09:19.428Z,0.60
2024-02-29T00:11:45.884Z,0.45
2024-02-29T00:14:12.331Z,0.50
2024-02-29T00:16:39.126Z,0.68
2024-02-29T00:19:05.485Z,0.60
2024-02-29T00:21:31.903Z,0.60
2024-02-29T00:23:58.277Z,0.70
2024-02-29T00:26:24.618Z,1.02
2024-02-29T00:28:50.936Z,0.70
2024-02-29T00:31:17.383Z,0.38
2024-02-29T00:33:43.860Z,0.40
2024-02-29T00:36:10.673Z,0.88
2024-02-29T00:38:37.694Z,0.63
2024-02-29T00:41:04.157Z,0.52
2024-02-29T00:43:30.534Z,0.57
2024-02-29T00:45:57.148Z,0.50
2024-02-29T00:48:23.518Z,0.47
2024-02-29T00:50:49.903Z,0.88
2024-02-29T00:53:16.294Z,0.60
2024-02-29T00:55:42.639Z,0.60
2024-02-29T00:58:09.207Z,0.63
2024-02-29T01:00:35.771Z,0.40
2024-02-29T01:03:02.445Z,1.52
2024-02-29T01:05:28.838Z,0.68
2024-02-29T01:07:55.277Z,0.50
2024-02-29T01:10:21.764Z,0.70
2024-02-29T01:12:48.218Z,0.70
2024-02-29T01:15:14.619Z,0.75
2024-02-29T01:17:41.875Z,1.00
2024-02-29T01:20:08.522Z,0.77
2024-02-29T01:22:35.592Z,0.60
2024-02-29T01:25:02.253Z,0.55
2024-02-29T01:27:28.879Z,0.70
2024-02-29T01:29:55.235Z,0.68
2024-02-29T01:32:26.616Z,0.90
2024-02-29T01:34:54.605Z,0.75
2024-02-29T01:37:21.120Z,0.52
2024-02-29T01:39:47.468Z,0.90
2024-02-29T01:42:13.984Z,0.82
2024-02-29T01:44:51.667Z,0.85
2024-02-29T01:47:17.991Z,0.88
2024-02-29T01:49:45.346Z,1.05
2024-02-29T01:52:12.034Z,0.80
2024-02-29T01:54:38.772Z,0.85
2024-02-29T01:57:05.531Z,1.00
2024-02-29T01:59:32.349Z,1.33
2024-02-29T02:01:58.842Z,0.68
2024-02-29T02:04:25.198Z,0.75
2024-02-29T02:06:51.575Z,0.73
2024-02-29T02:09:20.853Z,1.10
2024-02-29T02:11:47.236Z,1.20
2024-02-29T02:14:13.591Z,1.23
2024-02-29T02:16:39.979Z,1.05
2024-02-29T02:19:11.669Z,0.80
2024-02-29T02:24:04.429Z,1.00
2024-02-29T02:26:30.792Z,1.48
2024-02-29T02:28:57.165Z,0.90
2024-02-29T02:31:23.576Z,1.10
2024-02-29T02:33:49.964Z,1.55
2024-02-29T02:36:16.334Z,1.23
2024-02-29T02:38:42.694Z,0.82
2024-02-29T02:41:09.013Z,1.00
2024-02-29T02:43:35.347Z,0.95
2024-02-29T02:46:01.791Z,1.25
2024-02-29T02:48:28.240Z,1.30
2024-02-29T02:50:54.577Z,0.73
2024-02-29T02:53:21.116Z,1.00
2024-02-29T02:55:47.533Z,1.15
2024-02-29T02:58:13.969Z,1.38
2024-02-29T03:00:40.664Z,1.10
2024-02-29T03:03:07.153Z,1.13
2024-02-29T03:05:33.519Z,1.08
2024-02-29T03:07:59.957Z,0.70
2024-02-29T03:10:26.468Z,1.00
2024-02-29T03:12:52.806Z,1.10
2024-02-29T03:15:19.139Z,0.73
2024-02-29T03:17:45.566Z,1.30
2024-02-29T03:20:12.040Z,1.02
2024-02-29T03:22:38.948Z,2.10
2024-02-29T03:25:05.515Z,0.77
2024-02-29T03:27:32.044Z,1.27
2024-02-29T03:29:58.538Z,1.48
2024-02-29T03:32:24.935Z,1.17
2024-02-29T03:34:51.330Z,1.20
2024-02-29T03:37:17.775Z,0.90
2024-02-29T03:39:44.210Z,1.38
2024-02-29T03:42:10.719Z,1.40
2024-02-29T03:44:37.107Z,1.25
2024-02-29T03:47:03.465Z,1.67
2024-02-29T03:49:29.803Z,1.55
2024-02-29T03:51:56.243Z,1.50
2024-02-29T03:54:22.597Z,1.50
2024-02-29T03:56:49.023Z,1.27
2024-02-29T03:59:15.427Z,1.33
2024-02-29T04:01:47.365Z,1.05
2024-02-29T04:04:13.896Z,1.23
2024-02-29T04:06:40.434Z,1.10
2024-02-29T04:09:06.773Z,1.23
2024-02-29T04:11:33.153Z,2.00
2024-02-29T04:13:59.556Z,1.10
2024-02-29T04:16:26.002Z,1.30
2024-02-29T04:18:52.431Z,1.33
2024-02-29T04:21:18.857Z,1.50
2024-02-29T04:23:45.248Z,2.25
2024-02-29T04:26:11.606Z,1.40
2024-02-29T04:28:37.951Z,1.40
2024-02-29T04:31:05.121Z,1.75
2024-02-29T04:33:31.536Z,1.40
2024-02-29T04:35:57.969Z,1.42
2024-02-29T04:38:24.365Z,1.58
2024-02-29T04:40:50.730Z,1.40
2024-02-29T04:43:17.165Z,1.27
2024-02-29T04:45:43.642Z,1.40
2024-02-29T04:48:10.119Z,1.90
2024-02-29T04:50:36.575Z,1.60
2024-02-29T04:53:02.905Z,1.40
2024-02-29T04:55:29.307Z,1.98
2024-02-29T04:57:55.720Z,1.80
2024-02-29T05:00:22.095Z,1.08
2024-02-29T05:02:48.427Z,2.15
2024-02-29T05:05:15.019Z,1.70
2024-02-29T05:07:41.402Z,1.95
2024-02-29T05:10:08.349Z,1.42
2024-02-29T05:12:34.928Z,1.63
2024-02-29T05:15:01.339Z,1.35
2024-02-29T05:17:27.717Z,1.33
2024-02-29T05:19:54.162Z,1.73
2024-02-29T05:22:21.150Z,1.48
2024-02-29T05:24:47.604Z,1.63
2024-02-29T05:27:14.103Z,1.17
2024-02-29T05:29:40.504Z,1.35
2024-02-29T05:32:07.125Z,1.08
2024-02-29T05:34:33.573Z,1.20
2024-02-29T05:36:59.992Z,1.60
2024-02-29T05:39:26.420Z,1.33
2024-02-29T05:41:52.804Z,1.27
2024-02-29T05:44:19.122Z,1.50
2024-02-29T05:46:45.498Z,1.27
2024-02-29T05:49:12.006Z,1.60
2024-02-29T05:51:38.481Z,1.13
2024-02-29T05:54:04.971Z,1.10
2024-02-29T05:56:31.327Z,1.40
2024-02-29T05:58:57.702Z,1.67
2024-02-29T06:01:24.138Z,1.10
2024-02-29T06:03:50.621Z,1.10
2024-02-29T06:06:17.124Z,1.20
2024-02-29T06:08:43.504Z,1.20
2024-02-29T06:11:13.751Z,1.30
2024-02-29T06:13:40.190Z,1.20
2024-02-29T06:16:06.985Z,0.90
2024-02-29T06:18:33.584Z,0.80
2024-02-29T06:20:59.980Z,1.00
2024-02-29T06:23:26.309Z,1.20
2024-02-29T06:25:52.654Z,1.00
2024-02-29T06:28:22.928Z,1.08
2024-02-29T06:33:16.961Z,1.05
2024-02-29T06:35:43.420Z,1.00
2024-02-29T06:38:09.856Z,1.20
2024-02-29T06:40:36.265Z,0.65
2024-02-29T06:43:02.753Z,1.00
2024-02-29T06:45:29.127Z,1.25
2024-02-29T06:47:55.548Z,1.20
2024-02-29T06:50:21.927Z,0.80
2024-02-29T06:52:48.375Z,0.88
2024-02-29T06:55:15.255Z,0.70
2024-02-29T06:57:41.742Z,0.80
2024-02-29T07:00:08.401Z,1.00
2024-02-29T07:02:34.832Z,1.48
2024-02-29T07:05:01.290Z,0.80
2024-02-29T07:07:27.672Z,0.60
2024-02-29T07:09:54.062Z,0.95
2024-02-29T07:12:20.675Z,0.60
2024-02-29T07:14:47.174Z,0.60
2024-02-29T07:17:13.625Z,0.65
2024-02-29T07:19:39.971Z,0.65
2024-02-29T07:22:06.861Z,0.80
2024-02-29T07:24:33.297Z,0.70
2024-02-29T07:26:59.706Z,0.70
2024-02-29T07:29:26.050Z,0.82
2024-02-29T07:31:54.838Z,1.00
2024-02-29T07:34:21.530Z,0.57
2024-02-29T07:36:48.016Z,0.63
2024-02-29T07:39:14.486Z,0.75
2024-02-29T07:41:41.191Z,0.50
2024-02-29T07:44:07.654Z,0.57
2024-02-29T07:46:34.059Z,0.60
2024-02-29T07:49:00.541Z,0.50
2024-02-29T07:51:27.022Z,0.95
2024-02-29T07:53:53.346Z,0.65
2024-02-29T07:56:19.781Z,1.05
2024-02-29T07:58:47.146Z,0.50
2024-02-29T08:01:14.243Z,0.50
2024-02-29T08:03:40.703Z,0.40
2024-02-29T08:06:07.314Z,0.55
2024-02-29T08:08:33.758Z,0.40
2024-02-29T08:11:00.117Z,0.60
2024-02-29T08:13:26.660Z,0.40
2024-02-29T08:15:53.186Z,0.50
2024-02-29T08:18:19.657Z,0.90
2024-02-29T08:20:46.052Z,0.60
2024-02-29T08:23:12.493Z,0.43
2024-02-29T08:25:38.965Z,0.40
2024-02-29T08:28:05.628Z,0.40
2024-02-29T08:30:32.075Z,0.68
2024-02-29T08:32:58.501Z,0.60
2024-02-29T08:35:24.943Z,0.60
2024-02-29T08:37:52.315Z,0.50
2024-02-29T08:40:19.715Z,0.50
2024-02-29T08:42:46.112Z,0.55
2024-02-29T08:45:12.542Z,0.40
2024-02-29T08:47:38.950Z,0.60
2024-02-29T08:50:05.595Z,0.60
2024-02-29T08:52:32.055Z,0.50
2024-02-29T08:54:58.667Z,0.68
2024-02-29T08:57:25.226Z,0.50
2024-02-29T08:59:51.632Z,0.70
2024-02-29T09:02:17.968Z,0.93
2024-02-29T09:04:44.390Z,0.68
2024-02-29T09:07:11.411Z,0.82
2024-02-29T09:09:37.935Z,0.75
2024-02-29T09:12:04.372Z,0.70
2024-02-29T09:14:30.771Z,0.60
2024-02-29T09:16:57.157Z,0.82
2024-02-29T09:19:23.744Z,0.65
2024-02-29T09:21:50.168Z,0.60
2024-02-29T09:24:16.572Z,0.70
2024-02-29T09:26:42.943Z,0.40
2024-02-29T09:29:09.370Z,0.55
2024-02-29T09:31:35.843Z,0.50
2024-02-29T09:34:02.195Z,0.65
2024-02-29T09:36:28.621Z,0.65
2024-02-29T09:38:55.012Z,0.45
2024-02-29T09:41:32.862Z,0.50
2024-02-29T09:44:09.269Z,0.60
2024-02-29T09:46:35.695Z,0.50
2024-02-29T09:49:02.275Z,0.50
2024-02-29T09:51:29.780Z,0.60
2024-02-29T09:53:56.533Z,0.40
2024-02-29T09:56:23.943Z,0.70
2024-02-29T09:58:51.936Z,0.70
2024-02-29T10:01:18.409Z,0.70
2024-02-29T10:03:45.909Z,0.60
2024-02-29T10:06:12.359Z,0.70
2024-02-29T10:08:38.930Z,0.50
2024-02-29T10:11:05.463Z,0.60
2024-02-29T10:13:41.912Z,0.40
2024-02-29T10:16:08.681Z,0.47
2024-02-29T10:18:35.727Z,0.45
2024-02-29T10:21:02.314Z,0.43
2024-02-29T10:23:31.824Z,0.30
2024-02-29T10:25:58.347Z,0.70
2024-02-29T10:28:24.808Z,0.35
2024-02-29T10:30:51.434Z,0.35
2024-02-29T10:33:17.858Z,0.68
2024-02-29T10:35:44.267Z,0.35
2024-02-29T10:38:10.689Z,0.40
2024-02-29T10:40:37.161Z,0.50
2024-02-29T10:43:03.759Z,0.40
2024-02-29T10:45:31.873Z,0.35
2024-02-29T10:48:02.070Z,0.40
2024-02-29T10:50:31.863Z,0.40
2024-02-29T10:53:27.705Z,0.50
2024-02-29T10:55:57.821Z,0.57
2024-02-29T10:58:27.522Z,0.50
2024-02-29T11:00:54.023Z,0.50
2024-02-29T11:03:21.094Z,0.60
2024-02-29T11:05:47.990Z,0.40
2024-02-29T11:08:14.656Z,0.82
2024-02-29T11:10:40.985Z,0.40
2024-02-29T11:13:07.394Z,0.50
2024-02-29T11:15:33.886Z,0.50
2024-02-29T11:18:00.300Z,0.60
2024-02-29T11:20:26.786Z,0.68
2024-02-29T11:23:10.546Z,0.70
2024-02-29T11:25:42.311Z,0.50
2024-02-29T11:28:08.809Z,0.77
2024-02-29T11:30:35.192Z,0.70
2024-02-29T11:33:07.861Z,0.95
2024-02-29T11:35:34.282Z,0.63
2024-02-29T11:38:02.405Z,0.75
2024-02-29T11:40:29.422Z,0.70
2024-02-29T11:42:57.143Z,1.10
2024-02-29T11:45:23.908Z,0.77
2024-02-29T11:47:53.273Z,0.88
2024-02-29T11:50:19.852Z,0.90
2024-02-29T11:52:46.305Z,0.82
2024-02-29T11:55:13.316Z,0.85
2024-02-29T11:57:39.744Z,1.55
2024-02-29T12:00:08.993Z,1.42
2024-02-29T12:02:35.825Z,1.13
2024-02-29T12:05:02.335Z,1.40
2024-02-29T12:07:28.835Z,1.48
2024-02-29T12:09:55.314Z,1.20
2024-02-29T12:12:21.798Z,1.55
2024-02-29T12:14:48.378Z,1.73
2024-02-29T12:17:14.862Z,1.58
2024-02-29T12:19:41.273Z,1.95
2024-02-29T12:22:14.412Z,1.80
2024-02-29T12:24:41.037Z,1.75
2024-02-29T12:27:08.308Z,1.30
2024-02-29T12:29:34.722Z,1.80
2024-02-29T12:32:01.119Z,2.45
2024-02-29T12:34:27.843Z,2.15
2024-02-29T12:36:56.278Z,2.38
2024-02-29T12:39:22.716Z,1.98
2024-02-29T12:41:49.187Z,1.80
2024-02-29T12:44:15.666Z,1.70
2024-02-29T12:46:42.118Z,1.75
2024-02-29T12:49:08.551Z,2.08
2024-02-29T12:51:35.054Z,1.80
2024-02-29T12:54:01.431Z,2.20
2024-02-29T12:56:27.900Z,2.72
2024-02-29T12:58:54.321Z,2.40
2024-02-29T13:01:20.766Z,3.20
2024-02-29T13:03:47.326Z,2.40
2024-02-29T13:06:13.781Z,2.63
2024-02-29T13:08:40.200Z,4.35
2024-02-29T13:11:06.786Z,2.90
2024-02-29T13:13:33.415Z,2.78
2024-02-29T13:15:59.981Z,2.55
2024-02-29T13:18:26.358Z,3.67
2024-02-29T13:20:52.770Z,3.50
2024-02-29T13:23:19.180Z,2.88
2024-02-29T13:25:45.832Z,3.15
2024-02-29T13:28:12.323Z,3.35
2024-02-29T13:30:38.839Z,3.42
2024-02-29T13:33:05.362Z,3.17
2024-02-29T13:35:31.821Z,3.35
2024-02-29T13:37:58.273Z,4.45
2024-02-29T13:40:24.768Z,3.70
2024-02-29T13:42:51.223Z,3.20
2024-02-29T13:45:17.536Z,3.50
2024-02-29T13:47:48.472Z,3.28
2024-02-29T13:50:14.966Z,3.83
2024-02-29T13:52:41.354Z,3.00
2024-02-29T13:55:07.917Z,4.00
2024-02-29T13:57:34.370Z,2.70
2024-02-29T14:00:00.714Z,3.53
2024-02-29T14:02:27.071Z,3.38
2024-02-29T14:04:53.543Z,3.03
2024-02-29T14:07:20.117Z,4.03
2024-02-29T14:09:46.516Z,3.15
2024-02-29T14:12:12.897Z,3.28
2024-02-29T14:14:39.286Z,3.45
2024-02-29T14:17:05.670Z,3.53
2024-02-29T14:19:32.060Z,3.33
2024-02-29T14:21:58.497Z,3.38
2024-02-29T14:24:24.928Z,3.10
2024-02-29T14:26:51.402Z,3.28
2024-02-29T14:29:17.740Z,3.55
2024-02-29T14:31:44.306Z,3.75
2024-02-29T14:34:10.780Z,3.42
2024-02-29T14:36:39.522Z,3.60
2024-02-29T14:39:06.103Z,3.42
2024-02-29T14:41:32.507Z,3.08
2024-02-29T14:43:58.824Z,3.28
2024-02-29T14:46:25.289Z,2.67
2024-02-29T14:48:51.776Z,4.03
2024-02-29T14:51:18.139Z,3.38
2024-02-29T14:53:44.529Z,4.45
2024-02-29T14:56:10.995Z,3.30
2024-02-29T14:58:37.530Z,2.95
2024-02-29T15:01:04.203Z,2.63
2024-02-29T15:03:30.624Z,2.83
2024-02-29T15:05:57.007Z,2.97
2024-02-29T15:08:23.430Z,2.53
2024-02-29T15:10:49.790Z,2.72
2024-02-29T15:13:16.276Z,2.38
2024-02-29T15:15:42.737Z,2.30
2024-02-29T15:18:09.215Z,3.05
2024-02-29T15:20:35.588Z,3.13
2024-02-29T15:23:02.000Z,2.63
2024-02-29T15:25:28.484Z,2.92
2024-02-29T15:27:55.216Z,3.28
2024-02-29T15:30:21.785Z,2.85
2024-02-29T15:32:48.211Z,2.97
2024-02-29T15:35:14.680Z,3.35
2024-02-29T15:37:41.149Z,3.60
2024-02-29T15:40:07.962Z,3.03
2024-02-29T15:42:34.418Z,2.80
2024-02-29T15:45:01.009Z,3.45
2024-02-29T15:47:28.633Z,2.95
2024-02-29T15:49:54.997Z,4.55
2024-02-29T15:52:21.513Z,4.05
2024-02-29T15:54:48.008Z,2.85
2024-02-29T15:57:14.516Z,3.75
2024-02-29T15:59:40.936Z,4.03
2024-02-29T16:02:07.475Z,3.40
2024-02-29T16:04:33.986Z,2.88
2024-02-29T16:07:00.442Z,2.60
2024-02-29T16:09:26.964Z,2.58
2024-02-29T16:11:56.584Z,3.05
2024-02-29T16:14:23.809Z,2.40
2024-02-29T16:16:50.231Z,2.92
2024-02-29T16:19:16.656Z,2.55
2024-02-29T16:21:43.191Z,2.60
2024-02-29T16:24:09.672Z,2.40
2024-02-29T16:26:36.563Z,3.42
2024-02-29T16:29:03.039Z,3.28
2024-02-29T16:31:29.747Z,3.33
2024-02-29T16:33:56.157Z,3.65
2024-02-29T16:36:22.537Z,2.97
2024-02-29T16:38:49.097Z,2.55
2024-02-29T16:41:15.509Z,3.15
2024-02-29T16:43:41.999Z,2.70
2024-02-29T16:46:08.480Z,2.60
2024-02-29T16:48:34.855Z,2.90
2024-02-29T16:51:01.227Z,4.00
2024-02-29T16:53:27.642Z,2.53
2024-02-29T16:55:53.975Z,3.13
2024-02-29T16:58:20.373Z,3.00
2024-02-29T17:00:46.946Z,2.63
2024-02-29T17:03:13.425Z,3.35
2024-02-29T17:05:39.754Z,3.63
2024-02-29T17:08:06.643Z,2.45
2024-02-29T17:10:33.031Z,2.95
2024-02-29T17:12:59.974Z,2.78
2024-02-29T17:15:26.374Z,2.72
2024-02-29T17:17:52.829Z,3.25
2024-02-29T17:20:19.306Z,2.47
2024-02-29T17:22:45.746Z,3.33
2024-02-29T17:25:12.299Z,2.70
2024-02-29T17:27:38.784Z,2.88
2024-02-29T17:30:05.494Z,2.70
2024-02-29T17:32:31.841Z,3.90
2024-02-29T17:34:58.177Z,2.80
2024-02-29T17:37:26.379Z,2.50
2024-02-29T17:39:54.322Z,2.85
2024-02-29T17:42:20.772Z,2.70
2024-02-29T17:44:47.373Z,3.47
2024-02-29T17:47:16.467Z,3.75
2024-02-29T17:49:45.542Z,3.85
2024-02-29T17:52:14.601Z,3.13
2024-02-29T17:54:41.012Z,2.92
2024-02-29T17:57:07.534Z,2.38
2024-02-29T17:59:35.759Z,3.20
2024-02-29T18:02:04.975Z,3.67
2024-02-29T18:04:33.520Z,3.00
2024-02-29T18:07:00.169Z,2.65
2024-02-29T18:09:26.816Z,2.50
2024-02-29T18:11:59.412Z,2.50
2024-02-29T18:14:26.316Z,2.95
2024-02-29T18:16:55.117Z,2.40
2024-02-29T18:19:22.299Z,2.15
2024-02-29T18:21:49.400Z,2.50
2024-02-29T18:24:18.575Z,3.05
2024-02-29T18:27:00.975Z,2.30
2024-02-29T18:29:32.773Z,2.47
2024-02-29T18:32:01.861Z,3.05
2024-02-29T18:34:30.693Z,2.88
2024-02-29T18:36:58.426Z,3.72
2024-02-29T18:39:24.860Z,3.10
2024-02-29T18:42:00.912Z,2.85
2024-02-29T18:44:28.150Z,2.70
2024-02-29T18:46:57.496Z,2.85
2024-02-29T18:49:26.837Z,2.40
2024-02-29T18:51:56.026Z,2.90
2024-02-29T18:54:31.683Z,2.10
2024-02-29T18:57:09.259Z,2.45
2024-02-29T18:59:37.932Z,2.83
2024-02-29T19:02:06.887Z,2.90
2024-02-29T19:04:35.775Z,3.20
2024-02-29T19:07:02.969Z,2.75
2024-02-29T19:09:34.697Z,3.00
2024-02-29T19:14:28.213Z,3.10
2024-02-29T19:16:57.152Z,2.67
2024-02-29T19:19:24.331Z,3.42
2024-02-29T19:21:51.522Z,2.90
2024-02-29T19:24:20.376Z,3.50
2024-02-29T19:26:47.716Z,2.83
2024-02-29T19:29:16.592Z,2.78
2024-02-29T19:31:45.375Z,3.22
2024-02-29T19:34:14.208Z,3.85
2024-02-29T19:36:43.357Z,2.78
2024-02-29T19:39:11.804Z,3.28
2024-02-29T19:41:40.520Z,2.83
2024-02-29T19:44:07.571Z,2.50
2024-02-29T19:46:34.010Z,3.55
2024-02-29T19:49:02.898Z,3.22
2024-02-29T19:51:35.218Z,2.65
2024-02-29T19:54:04.005Z,3.60
2024-02-29T19:56:32.817Z,3.25
2024-02-29T19:59:01.228Z,3.25
2024-02-29T20:01:33.800Z,2.83
2024-02-29T20:04:02.707Z,2.90
2024-02-29T20:06:34.845Z,3.33
2024-02-29T20:09:01.581Z,3.13
2024-02-29T20:11:30.500Z,4.38
2024-02-29T20:13:59.258Z,3.80
2024-02-29T20:16:30.772Z,2.83
2024-02-29T20:19:02.893Z,2.55
2024-02-29T20:21:31.068Z,2.53
2024-02-29T20:24:05.290Z,4.70
2024-02-29T20:26:33.558Z,3.72
2024-02-29T20:29:01.753Z,5.30
2024-02-29T20:31:28.292Z,5.03
2024-02-29T20:33:54.852Z,3.08
2024-02-29T20:36:21.269Z,3.90
2024-02-29T20:38:48.171Z,2.85
2024-02-29T20:41:17.179Z,3.03
2024-02-29T20:43:58.666Z,2.63
2024-02-29T20:46:27.499Z,2.50
2024-02-29T20:48:53.961Z,2.72
2024-02-29T20:51:25.673Z,2.33
2024-02-29T20:56:26.293Z,2.65
2024-02-29T20:58:52.754Z,2.30
2024-02-29T21:01:25.492Z,2.10
2024-02-29T21:03:57.435Z,2.72
2024-02-29T21:06:26.058Z,2.58
2024-02-29T21:08:52.577Z,2.95
2024-02-29T21:11:21.732Z,2.10
2024-02-29T21:13:49.726Z,2.83
2024-02-29T21:16:16.421Z,2.58
2024-02-29T21:18:43.113Z,2.50
2024-02-29T21:21:16.363Z,2.38
2024-02-29T21:23:44.256Z,2.45
2024-02-29T21:26:18.603Z,3.28
2024-02-29T21:28:47.593Z,3.20
2024-02-29T21:31:14.209Z,2.20
2024-02-29T21:33:40.856Z,2.17
2024-02-29T21:36:16.523Z,2.53
2024-02-29T21:38:45.387Z,2.80
2024-02-29T21:41:14.010Z,2.80
2024-02-29T21:43:41.887Z,2.63
2024-02-29T21:46:09.986Z,2.45
2024-02-29T21:48:36.543Z,3.05
2024-02-29T21:51:02.892Z,2.58
2024-02-29T21:53:30.849Z,2.28
2024-02-29T21:55:57.223Z,2.50
2024-02-29T21:58:25.808Z,2.90
2024-02-29T22:00:52.294Z,2.58
2024-02-29T22:03:22.783Z,2.70
2024-02-29T22:05:51.413Z,2.58
2024-02-29T22:08:17.742Z,2.88
2024-02-29T22:10:45.719Z,3.00
2024-02-29T22:13:14.586Z,4.15
2024-02-29T22:15:42.257Z,2.65
2024-02-29T22:18:11.012Z,3.78
2024-02-29T22:20:38.731Z,2.85
2024-02-29T22:23:05.138Z,3.28
2024-02-29T22:25:31.528Z,3.42
2024-02-29T22:28:00.105Z,3.08
2024-02-29T22:30:26.492Z,2.88
2024-02-29T22:32:55.452Z,2.92
2024-02-29T22:35:23.705Z,4.70
2024-02-29T22:37:50.025Z,3.05
2024-02-29T22:40:21.122Z,2.90
2024-02-29T22:42:47.493Z,2.75
2024-02-29T22:45:15.798Z,2.97
2024-02-29T22:47:44.214Z,3.33
2024-02-29T22:50:13.021Z,3.75
2024-02-29T22:52:41.471Z,4.03
2024-02-29T22:55:09.752Z,4.45
2024-02-29T22:57:38.305Z,4.22
2024-02-29T23:00:06.755Z,4.30
2024-02-29T23:02:35.063Z,4.75
2024-02-29T23:05:03.450Z,3.92
2024-02-29T23:07:29.878Z,4.43
2024-02-29T23:09:56.651Z,4.80
2024-02-29T23:12:23.079Z,5.40
2024-02-29T23:14:49.436Z,4.45
2024-02-29T23:17:15.786Z,6.30
2024-02-29T23:19:42.249Z,5.22
2024-02-29T23:22:08.663Z,7.57
2024-02-29T23:24:35.043Z,6.57
2024-02-29T23:27:01.423Z,5.80
2024-02-29T23:29:27.796Z,6.68
2024-02-29T23:31:56.001Z,4.72
2024-02-29T23:34:23.841Z,5.65
2024-02-29T23:36:50.321Z,5.93
2024-02-29T23:39:16.748Z,6.18
2024-02-29T23:41:43.192Z,6.32
2024-02-29T23:44:09.562Z,5.72
2024-02-29T23:46:36.070Z,5.90
2024-02-29T23:49:02.455Z,5.38
2024-02-29T23:51:28.854Z,4.93
2024-02-29T23:53:55.197Z,5.22
2024-02-29T23:56:21.546Z,5.35
2024-02-29T23:58:47.910Z,5.57
